Terminal Aerodrome Forecast
Issued by NWS

Home | Current Version | Previous Version | Text Only | Print | Product List | Glossary On
Versions: 1 2 3 4 5 6 7 8 9 10 11 12 13 14 15 16 17
279
FTUS43 KICT 281138
TAFHUT
TAF
KHUT 281138Z 2812/0112 17009KT 6SM BR BKN200
      TEMPO 2812/2814 3SM BR
     FM281400 22010KT P6SM BKN200
     FM281700 22018G26KT P6SM BKN200
     FM010100 34017G25KT P6SM VCSH SCT025 BKN100
     FM010700 32014G22KT P6SM SCT100=

USA.gov is the U.S. government's official web portal to all federal, state and local government web resources and services.